Terminal Aerodrome Forecast
Issued by NWS

Home | Current Version | Previous Version | Text Only | Print | Product List | Glossary Off
Versions: 1 2 3 4 5 6 7 8 9 10 11 12 13 14 15 16 17 18 19

000
FTUS43 KMPX 180500
TAFRWF
TAF
KRWF 180529Z 1806/1906 32008KT P6SM OVC020
     FM181400 34004KT P6SM SCT020
     FM181800 VRB03KT P6SM SKC
     FM190000 16006KT P6SM SCT250=

USA.gov is the U.S. government's official web portal to all federal, state and local government web resources and services.